Time;durP1;ratioP1;P1;durP2;ratioP2;P2;SDS_P1;SDS_P2;PMS_P1;PMS_P2;Temp;Humidity;BMP_temperature;BMP_pressure;BME280_temperature;BME280_humidity;BME280_pressure;Samples;Min_cycle;Max_cycle;Signal;HPM_P1;HPM_P2
2024/01/09 00:01:26;;;;;;;29.00;11.57;;;;;;;-4.07;58.35;101132.19;6064466;23;20045;-85
2024/01/09 00:03:53;;;;;;;23.45;11.20;;;;;;;-3.94;58.03;101125.16;6089375;23;20088;-85
2024/01/09 00:06:21;;;;;;;37.10;13.80;;;;;;;-3.86;58.50;101128.53;6065588;23;20026;-85
2024/01/09 00:08:49;;;;;;;35.30;11.65;;;;;;;-3.95;58.03;101123.41;6089715;23;20084;-85
2024/01/09 00:11:16;;;;;;;35.50;12.18;;;;;;;-3.95;58.39;101128.63;6089740;23;20030;-85
2024/01/09 00:13:42;;;;;;;26.02;11.35;;;;;;;-3.95;58.62;101132.06;6089029;23;20022;-86
2024/01/09 00:16:09;;;;;;;22.17;8.25;;;;;;;-3.88;58.12;101129.44;6089202;23;20477;-84
2024/01/09 00:18:36;;;;;;;27.65;11.70;;;;;;;-3.99;58.12;101127.78;6113709;23;20021;-85
2024/01/09 00:21:03;;;;;;;34.35;12.65;;;;;;;-3.97;58.57;101131.25;6088962;23;20026;-85
2024/01/09 00:23:30;;;;;;;33.78;11.95;;;;;;;-3.93;58.65;101132.06;6089600;23;20705;-85
2024/01/09 00:25:57;;;;;;;27.00;11.27;;;;;;;-3.95;58.26;101126.00;6090347;23;20022;-85
2024/01/09 00:28:24;;;;;;;32.65;12.32;;;;;;;-3.94;58.37;101127.75;6064358;23;20081;-85
2024/01/09 00:30:50;;;;;;;26.33;11.43;;;;;;;-3.90;58.28;101128.56;6088405;23;20050;-84
2024/01/09 00:33:17;;;;;;;28.58;10.52;;;;;;;-3.89;58.15;101120.78;6089548;23;20022;-86
2024/01/09 00:35:44;;;;;;;31.23;12.23;;;;;;;-3.84;58.58;101137.19;6114752;23;20022;-86
2024/01/09 00:38:12;;;;;;;27.70;10.88;;;;;;;-3.85;57.57;101134.59;6090617;23;20033;-86
2024/01/09 00:40:39;;;;;;;22.83;8.32;;;;;;;-4.01;58.01;101132.13;6091472;23;20454;-86
2024/01/09 00:43:07;;;;;;;23.67;9.00;;;;;;;-4.00;57.52;101145.94;6091177;23;20026;-85
2024/01/09 00:45:33;;;;;;;25.00;10.27;;;;;;;-3.97;58.04;101127.75;6042911;23;20104;-85
2024/01/09 00:48:05;;;;;;;27.50;10.80;;;;;;;-3.90;58.38;101142.41;6090329;23;20030;-85
2024/01/09 00:50:33;;;;;;;30.02;11.73;;;;;;;-3.97;57.52;101128.66;6090979;23;20026;-85
2024/01/09 00:53:00;;;;;;;26.88;11.98;;;;;;;-4.02;57.90;101121.75;6116655;23;20025;-84
2024/01/09 00:55:27;;;;;;;29.17;11.70;;;;;;;-4.08;58.57;101127.00;6090605;23;20089;-85
2024/01/09 00:57:54;;;;;;;37.72;10.88;;;;;;;-4.07;57.68;101120.91;6067010;23;20102;-85
2024/01/09 01:00:21;;;;;;;30.70;11.32;;;;;;;-4.05;58.07;101112.25;6067364;23;20093;-85
2024/01/09 01:02:48;;;;;;;28.77;11.50;;;;;;;-4.02;57.72;101129.53;6090220;23;20028;-85
2024/01/09 01:05:15;;;;;;;37.33;13.57;;;;;;;-4.02;57.29;101127.81;6091169;23;20009;-85
2024/01/09 01:07:43;;;;;;;28.15;11.38;;;;;;;-4.02;57.50;101126.94;6090198;23;20037;-85
2024/01/09 01:10:13;;;;;;;27.95;12.38;;;;;;;-4.20;57.48;101127.94;6042445;23;20038;-85
2024/01/09 01:12:45;;;;;;;28.67;10.85;;;;;;;-4.01;57.49;101124.34;6068420;23;20022;-85
2024/01/09 01:15:12;;;;;;;31.92;13.07;;;;;;;-4.06;57.92;101125.25;6090557;23;20022;-85
2024/01/09 01:17:39;;;;;;;33.75;10.60;;;;;;;-4.04;58.01;101144.28;6089623;23;20683;-85
2024/01/09 01:20:07;;;;;;;27.75;10.55;;;;;;;-3.99;57.45;101130.38;6090562;23;20022;-85
2024/01/09 01:22:33;;;;;;;30.00;11.02;;;;;;;-4.13;57.36;101116.66;6090705;23;20030;-85
2024/01/09 01:25:01;;;;;;;30.75;10.85;;;;;;;-4.04;57.65;101124.38;6090308;23;20034;-86
2024/01/09 01:27:28;;;;;;;25.65;10.82;;;;;;;-4.08;57.21;101116.63;6090083;23;20014;-85
2024/01/09 01:29:55;;;;;;;26.65;10.15;;;;;;;-3.98;57.39;101134.69;6089620;23;20109;-85
2024/01/09 01:32:22;;;;;;;26.80;10.00;;;;;;;-4.00;57.25;101123.44;6066964;23;20026;-85
2024/01/09 01:34:49;;;;;;;30.02;11.27;;;;;;;-3.94;57.37;101131.22;6091032;23;20024;-85
2024/01/09 01:37:16;;;;;;;27.90;12.02;;;;;;;-4.27;57.09;101131.47;6090496;23;20523;-85
2024/01/09 01:39:42;;;;;;;26.33;10.73;;;;;;;-4.01;57.43;101128.66;6089360;23;20115;-85
2024/01/09 01:42:09;;;;;;;34.28;11.48;;;;;;;-4.04;56.91;101123.50;6090409;23;20093;-85
2024/01/09 01:44:36;;;;;;;25.95;10.23;;;;;;;-4.08;56.78;101130.44;6089738;23;20025;-85
2024/01/09 01:47:03;;;;;;;30.38;10.13;;;;;;;-3.96;56.94;101121.72;6066092;23;20139;-85
2024/01/09 01:49:30;;;;;;;25.95;9.98;;;;;;;-3.91;56.99;101132.91;6114022;23;20644;-85
2024/01/09 01:51:57;;;;;;;29.45;11.27;;;;;;;-3.97;56.86;101125.16;6090315;23;20044;-85
2024/01/09 01:54:24;;;;;;;32.25;12.02;;;;;;;-3.91;57.20;101121.69;6090801;23;20024;-85
2024/01/09 01:56:51;;;;;;;27.65;10.88;;;;;;;-3.87;57.28;101123.34;6090159;23;20096;-85
2024/01/09 01:59:20;;;;;;;27.77;11.15;;;;;;;-3.91;57.19;101122.53;6065136;23;20487;-85
2024/01/09 02:01:47;;;;;;;28.48;9.93;;;;;;;-3.93;57.33;101121.69;6065886;23;20457;-86
2024/01/09 02:04:14;;;;;;;26.50;10.18;;;;;;;-3.88;57.28;101122.50;6090927;23;20089;-85
2024/01/09 02:06:41;;;;;;;30.25;10.50;;;;;;;-3.90;57.15;101119.06;6089932;23;20045;-85
2024/01/09 02:09:08;;;;;;;31.60;10.73;;;;;;;-3.89;56.97;101119.91;6065974;23;20036;-85
2024/01/09 02:11:35;;;;;;;32.53;11.10;;;;;;;-3.86;56.89;101112.97;6066741;23;20026;-85
2024/01/09 02:14:02;;;;;;;31.13;11.07;;;;;;;-3.88;56.69;101111.28;6089981;23;20034;-86
2024/01/09 02:16:29;;;;;;;29.60;10.20;;;;;;;-3.84;57.04;101116.44;6090758;23;20461;-86
2024/01/09 02:18:55;;;;;;;23.98;10.00;;;;;;;-3.85;57.25;101119.88;6089166;23;20474;-85
2024/01/09 02:21:22;;;;;;;30.50;11.43;;;;;;;-3.98;56.64;101113.06;6088994;23;20093;-85
2024/01/09 02:23:49;;;;;;;28.40;10.25;;;;;;;-4.09;57.09;101115.75;6090496;23;20619;-85
2024/01/09 02:26:20;;;;;;;32.50;11.05;;;;;;;-4.08;56.71;101116.63;6090072;23;20044;-86
2024/01/09 02:29:09;;;;;;;33.13;12.50;;;;;;;-3.92;56.96;101107.81;6091556;23;20030;-85
2024/01/09 02:31:36;;;;;;;29.67;10.45;;;;;;;-4.13;56.70;101118.38;6090547;23;20478;-85
2024/01/09 02:34:04;;;;;;;30.00;11.48;;;;;;;-3.99;56.96;101107.03;6089995;23;20783;-86
2024/01/09 02:36:33;;;;;;;24.63;10.15;;;;;;;-3.99;57.25;101113.97;6066701;23;20089;-85
2024/01/09 02:39:00;;;;;;;29.85;10.88;;;;;;;-3.88;56.94;101109.53;6064684;23;20462;-85
2024/01/09 02:41:27;;;;;;;30.23;11.35;;;;;;;-3.88;57.13;101100.88;6066293;23;20025;-85
2024/01/09 02:43:54;;;;;;;22.67;9.27;;;;;;;-4.00;56.68;101105.28;6089434;23;20037;-85
2024/01/09 02:46:21;;;;;;;24.00;9.88;;;;;;;-4.00;56.45;101107.03;6064130;23;20022;-85
2024/01/09 02:48:48;;;;;;;23.63;10.52;;;;;;;-4.13;56.59;101100.22;6063713;23;20037;-85
2024/01/09 02:51:14;;;;;;;25.33;10.40;;;;;;;-4.04;56.86;101098.44;6065559;23;20014;-85
2024/01/09 02:53:41;;;;;;;25.17;9.95;;;;;;;-4.10;56.87;101100.19;6065798;23;20018;-85
2024/01/09 02:56:08;;;;;;;27.90;10.30;;;;;;;-4.02;57.07;101096.69;6089390;23;20077;-85
2024/01/09 02:58:35;;;;;;;33.13;10.55;;;;;;;-3.96;56.92;101101.81;6089669;23;20081;-85
2024/01/09 03:01:02;;;;;;;32.95;10.82;;;;;;;-3.98;56.81;101093.19;6036173;23;20023;-84
2024/01/09 03:03:29;;;;;;;23.52;10.10;;;;;;;-3.97;57.17;101088.84;6060630;23;20030;-85
2024/01/09 03:05:56;;;;;;;31.25;11.32;;;;;;;-3.94;56.79;101099.22;6043081;23;20030;-84
2024/01/09 03:08:23;;;;;;;35.47;10.02;;;;;;;-4.06;56.55;101094.97;6060864;23;20023;-85
2024/01/09 03:10:50;;;;;;;27.58;10.38;;;;;;;-4.07;56.66;101095.88;6064716;23;20034;-85
2024/01/09 03:13:17;;;;;;;27.95;10.15;;;;;;;-4.08;57.17;101101.06;6088847;23;20101;-86
2024/01/09 03:15:43;;;;;;;21.55;9.38;;;;;;;-3.98;56.74;101097.50;6065429;23;20458;-85
2024/01/09 03:18:10;;;;;;;21.75;10.52;;;;;;;-4.02;56.56;101106.19;6065559;23;20025;-84
2024/01/09 03:20:37;;;;;;;26.73;10.43;;;;;;;-4.03;57.02;101104.47;6088129;23;20029;-85
2024/01/09 03:23:04;;;;;;;29.95;9.90;;;;;;;-3.97;56.86;101112.19;6089552;23;20026;-85
2024/01/09 03:25:30;;;;;;;27.25;9.90;;;;;;;-4.19;56.70;101096.81;6066919;23;20101;-85
2024/01/09 03:27:57;;;;;;;25.52;9.70;;;;;;;-4.14;56.93;101104.56;6064834;23;20402;-86
2024/01/09 03:30:24;;;;;;;25.98;9.63;;;;;;;-4.11;57.26;101101.94;6088754;23;20048;-86
2024/01/09 03:32:51;;;;;;;23.38;9.25;;;;;;;-4.27;56.90;101096.00;6060865;23;20022;-85
2024/01/09 03:35:17;;;;;;;27.67;8.43;;;;;;;-4.21;57.00;101114.09;6084797;23;20102;-85
2024/01/09 03:37:44;;;;;;;24.58;10.00;;;;;;;-4.40;57.74;101107.31;6035769;23;20022;-86
2024/01/09 03:40:12;;;;;;;31.25;10.02;;;;;;;-4.23;57.46;101102.88;6087875;23;20399;-85
2024/01/09 03:42:38;;;;;;;31.65;10.68;;;;;;;-4.25;57.65;101115.03;6089093;23;20021;-85
2024/01/09 03:45:06;;;;;;;28.73;10.10;;;;;;;-4.19;57.83;101099.41;6114787;23;20042;-85
2024/01/09 03:47:33;;;;;;;26.15;9.63;;;;;;;-4.17;57.43;101107.19;6089094;23;20026;-85
2024/01/09 03:50:00;;;;;;;28.40;10.43;;;;;;;-4.30;57.48;101109.00;6088549;23;20092;-85
2024/01/09 03:52:27;;;;;;;22.63;9.93;;;;;;;-4.26;57.08;101102.06;6089378;23;20101;-86
2024/01/09 03:54:53;;;;;;;25.42;9.13;;;;;;;-4.30;57.34;101110.72;6089808;23;20338;-85
2024/01/09 03:57:20;;;;;;;21.10;9.10;;;;;;;-4.19;56.81;101099.41;6089313;23;20024;-85
2024/01/09 03:59:47;;;;;;;22.63;8.07;;;;;;;-4.30;57.21;101105.53;6089151;23;20472;-84
2024/01/09 04:02:14;;;;;;;26.48;9.90;;;;;;;-4.37;57.24;101105.59;6065136;23;20389;-85
2024/01/09 04:04:41;;;;;;;28.52;9.50;;;;;;;-4.33;57.27;101098.63;6065070;23;20092;-85
2024/01/09 04:07:07;;;;;;;24.95;10.15;;;;;;;-4.29;57.22;101100.34;6089466;23;20092;-85
2024/01/09 04:09:34;;;;;;;33.00;9.98;;;;;;;-4.28;57.13;101103.78;6088291;23;20362;-85
2024/01/09 04:12:01;;;;;;;26.70;10.55;;;;;;;-4.28;56.96;101107.25;6089609;23;20032;-85
2024/01/09 04:14:27;;;;;;;27.13;8.77;;;;;;;-4.22;57.27;101102.03;6091385;23;20528;-85
2024/01/09 04:16:56;;;;;;;31.33;10.98;;;;;;;-4.25;57.27;101096.88;6115421;23;20021;-85
2024/01/09 04:19:22;;;;;;;27.52;10.13;;;;;;;-4.33;58.31;101097.78;6066718;23;20030;-86
2024/01/09 04:21:49;;;;;;;27.90;9.55;;;;;;;-4.40;58.08;101104.72;6067327;23;20101;-85
2024/01/09 04:24:16;;;;;;;24.77;7.47;;;;;;;-4.27;57.53;101101.19;6067665;23;20628;-85
2024/01/09 04:26:43;;;;;;;34.28;11.00;;;;;;;-4.44;57.49;101097.84;6043514;23;20465;-85
2024/01/09 04:29:10;;;;;;;26.65;9.55;;;;;;;-4.40;56.99;101105.63;6066496;23;20045;-85
2024/01/09 04:31:37;;;;;;;23.77;9.73;;;;;;;-4.45;57.62;101111.66;6090831;23;20026;-85
2024/01/09 04:34:03;;;;;;;28.85;8.68;;;;;;;-4.33;57.55;101109.00;6043589;23;20025;-86
2024/01/09 04:36:30;;;;;;;24.67;10.18;;;;;;;-4.39;57.34;101102.13;6090420;23;20034;-85
2024/01/09 04:39:00;;;;;;;22.58;9.43;;;;;;;-4.46;57.69;101116.00;6065952;23;20347;-85
2024/01/09 04:41:26;;;;;;;26.25;10.57;;;;;;;-4.53;58.12;101111.72;6115244;23;20049;-85
2024/01/09 04:43:53;;;;;;;25.02;10.13;;;;;;;-4.54;57.30;101099.63;6067628;23;20034;-84
2024/01/09 04:46:20;;;;;;;25.23;9.20;;;;;;;-4.53;58.74;101114.31;6090575;23;20022;-86
2024/01/09 04:48:49;;;;;;;28.13;9.50;;;;;;;-4.53;57.96;101103.94;6090096;23;20050;-85
2024/01/09 04:51:16;;;;;;;33.83;10.27;;;;;;;-4.52;57.70;101116.06;6067306;23;20022;-85
2024/01/09 04:53:42;;;;;;;21.15;8.63;;;;;;;-4.56;57.74;101129.88;6090353;23;20046;-84
2024/01/09 04:56:09;;;;;;;25.65;9.13;;;;;;;-4.57;57.92;101111.78;6087840;23;20076;-85
2024/01/09 04:58:36;;;;;;;22.40;8.70;;;;;;;-4.59;58.09;101104.84;6065191;23;20402;-85
2024/01/09 05:01:03;;;;;;;27.70;9.07;;;;;;;-4.66;58.38;101110.06;6088743;23;20080;-86
2024/01/09 05:03:30;;;;;;;27.38;10.02;;;;;;;-4.71;57.69;101107.50;6043053;23;20029;-85
2024/01/09 05:05:57;;;;;;;20.10;8.18;;;;;;;-4.64;58.33;101108.34;6090211;23;20021;-85
2024/01/09 05:08:24;;;;;;;22.90;9.05;;;;;;;-4.85;57.94;101114.50;6086526;23;20870;-86
2024/01/09 05:10:51;;;;;;;28.65;9.57;;;;;;;-4.70;58.28;101105.78;6088817;23;20052;-85
2024/01/09 05:13:18;;;;;;;23.52;9.32;;;;;;;-4.77;58.08;101101.50;6090006;23;20069;-86
2024/01/09 05:15:44;;;;;;;26.27;9.52;;;;;;;-4.81;58.95;101108.41;6090064;23;20030;-86
2024/01/09 05:18:11;;;;;;;23.48;9.70;;;;;;;-4.82;58.40;101107.56;6065095;23;20021;-86
2024/01/09 05:20:39;;;;;;;29.90;10.15;;;;;;;-4.75;57.91;101097.19;6089405;23;20089;-87
2024/01/09 05:23:08;;;;;;;26.27;9.82;;;;;;;-4.68;58.26;101104.91;6082755;23;20940;-85
2024/01/09 05:25:35;;;;;;;27.73;8.48;;;;;;;-4.66;57.89;101097.97;6082326;23;20791;-87
2024/01/09 05:28:08;;;;;;;21.73;9.25;;;;;;;-4.80;58.40;101113.59;6009742;23;20084;-87
2024/01/09 05:30:37;;;;;;;20.25;9.82;;;;;;;-4.96;58.24;101108.50;6008643;23;20031;-85
2024/01/09 05:33:05;;;;;;;26.48;9.55;;;;;;;-4.82;58.11;101111.91;6074656;23;20038;-87
2024/01/09 05:35:34;;;;;;;29.58;9.70;;;;;;;-4.89;58.10;101110.19;6047379;23;20045;-87
2024/01/09 05:38:01;;;;;;;25.33;8.73;;;;;;;-4.71;58.23;101112.69;6062856;23;20034;-88
2024/01/09 05:40:43;;;;;;;25.95;8.95;;;;;;;-4.84;58.30;101116.22;6058243;23;20021;-88
2024/01/09 05:43:18;;;;;;;25.88;9.65;;;;;;;-4.82;58.28;101106.72;5996058;23;20028;-88
2024/01/09 05:45:52;;;;;;;21.08;8.52;;;;;;;-4.82;58.10;101119.66;6017175;23;20768;-88
2024/01/09 05:48:40;;;;;;;20.08;7.82;;;;;;;-4.80;57.90;101099.78;5991934;23;20346;-88
2024/01/09 05:51:09;;;;;;;25.75;9.88;;;;;;;-4.77;58.39;101104.09;6032473;23;20446;-85
2024/01/09 05:53:36;;;;;;;14.55;6.50;;;;;;;-4.86;57.79;101099.81;6061071;23;20424;-86
2024/01/09 05:56:04;;;;;;;22.20;9.23;;;;;;;-4.77;58.12;101122.25;6084819;23;20805;-85
2024/01/09 05:58:31;;;;;;;32.33;9.90;;;;;;;-4.84;59.00;101111.03;6060605;23;20725;-89
2024/01/09 06:00:57;;;;;;;23.33;8.70;;;;;;;-4.76;58.23;101103.22;6077914;23;20030;-94
2024/01/09 06:03:24;;;;;;;31.33;10.75;;;;;;;-4.81;58.20;101104.13;6084051;23;20026;-91
2024/01/09 06:05:51;;;;;;;22.15;8.75;;;;;;;-4.81;58.13;101108.41;6087286;23;20014;-92
2024/01/09 06:08:18;;;;;;;20.98;8.95;;;;;;;-4.81;57.95;101109.31;6059758;23;20109;-89
2024/01/09 06:10:45;;;;;;;22.63;9.23;;;;;;;-4.82;58.15;101110.16;6059073;23;20021;-89
2024/01/09 06:13:12;;;;;;;25.13;9.27;;;;;;;-4.86;57.85;101116.25;6108402;23;20048;-88
2024/01/09 06:15:39;;;;;;;26.65;9.35;;;;;;;-4.78;57.83;101113.59;6084052;23;20041;-92
2024/01/09 06:18:07;;;;;;;22.83;9.23;;;;;;;-4.85;58.30;101123.13;6058581;23;20094;-91
2024/01/09 06:20:34;;;;;;;31.33;10.20;;;;;;;-4.93;58.04;101109.34;6035426;23;20026;-91
2024/01/09 06:23:01;;;;;;;24.83;8.93;;;;;;;-4.89;57.62;101112.78;6063563;23;20118;-92
2024/01/09 06:25:28;;;;;;;21.52;9.55;;;;;;;-4.82;58.56;101119.66;6041112;23;20112;-96
2024/01/09 06:27:54;;;;;;;26.60;9.32;;;;;;;-5.05;57.97;101114.59;6064743;23;20022;-92
2024/01/09 06:30:22;;;;;;;25.00;9.20;;;;;;;-5.07;57.88;101117.16;6062528;23;20029;-93
2024/01/09 06:32:49;;;;;;;29.10;9.88;;;;;;;-5.02;57.39;101111.97;6081595;23;20029;-86
2024/01/09 06:35:16;;;;;;;29.35;10.05;;;;;;;-4.88;58.28;101119.72;6081235;23;20339;-86
2024/01/09 06:37:44;;;;;;;27.58;10.52;;;;;;;-4.85;58.38;101130.06;6080951;23;20028;-86
2024/01/09 06:40:11;;;;;;;24.13;8.15;;;;;;;-4.77;58.02;101114.47;5974768;23;20018;-86
2024/01/09 06:42:39;;;;;;;23.05;8.85;;;;;;;-4.91;58.22;101132.66;6056293;23;20368;-88
2024/01/09 06:45:06;;;;;;;25.10;9.40;;;;;;;-4.95;58.18;101121.44;6060103;23;20057;-88
2024/01/09 06:47:34;;;;;;;26.40;9.13;;;;;;;-4.86;57.82;101121.41;6108227;23;20029;-87
2024/01/09 06:50:03;;;;;;;23.42;8.57;;;;;;;-4.82;57.87;101123.09;6104990;23;20057;-87
2024/01/09 06:52:33;;;;;;;25.15;10.13;;;;;;;-4.85;58.48;101122.28;6084881;23;20718;-87
2024/01/09 06:55:00;;;;;;;30.33;10.10;;;;;;;-4.93;57.78;101124.03;6083642;23;20022;-87
2024/01/09 06:57:26;;;;;;;25.80;9.70;;;;;;;-4.95;57.98;101131.81;6083391;23;20036;-87
2024/01/09 06:59:53;;;;;;;22.27;9.18;;;;;;;-4.99;57.87;101124.91;6057215;23;20869;-88
2024/01/09 07:02:21;;;;;;;24.10;9.07;;;;;;;-4.92;57.82;101128.34;6082407;23;20017;-87
2024/01/09 07:04:48;;;;;;;28.52;9.63;;;;;;;-4.88;58.05;101130.06;6060829;23;20018;-88
2024/01/09 07:07:15;;;;;;;25.92;8.45;;;;;;;-4.94;58.09;101127.47;6060985;23;20049;-88
2024/01/09 07:09:42;;;;;;;28.00;9.75;;;;;;;-4.81;58.21;101134.31;6056940;23;20045;-87
2024/01/09 07:12:09;;;;;;;21.85;7.93;;;;;;;-4.75;57.59;101130.88;6049704;23;20021;-89
2024/01/09 07:14:36;;;;;;;24.65;9.45;;;;;;;-4.79;58.32;101135.19;6086255;23;20418;-89
2024/01/09 07:17:04;;;;;;;23.88;9.85;;;;;;;-4.84;57.95;101135.19;6062020;23;20037;-89
2024/01/09 07:19:30;;;;;;;24.80;8.40;;;;;;;-4.72;58.52;101141.22;6060893;23;20022;-92
2024/01/09 07:21:57;;;;;;;27.17;9.85;;;;;;;-4.81;58.25;101140.41;6107462;23;20704;-84
2024/01/09 07:24:24;;;;;;;30.80;9.65;;;;;;;-4.85;57.67;101143.00;6084081;23;20017;-85
2024/01/09 07:26:51;;;;;;;26.35;8.80;;;;;;;-4.93;58.02;101132.66;6107276;23;20033;-81
2024/01/09 07:29:19;;;;;;;28.23;9.82;;;;;;;-4.99;59.01;101156.00;6076427;23;20718;-83
2024/01/09 07:31:47;;;;;;;25.85;9.68;;;;;;;-4.93;57.69;101140.44;6030336;23;20025;-81
2024/01/09 07:34:14;;;;;;;27.45;9.23;;;;;;;-4.92;58.02;101142.16;6061054;23;20022;-82
2024/01/09 07:36:42;;;;;;;23.30;9.75;;;;;;;-5.09;58.24;101146.53;6036740;23;20018;-81
2024/01/09 07:39:10;;;;;;;27.15;9.13;;;;;;;-4.93;58.03;101150.81;6081218;23;20637;-82
2024/01/09 07:41:37;;;;;;;24.58;9.07;;;;;;;-4.92;58.24;101160.28;6059280;23;20025;-82
2024/01/09 07:44:04;;;;;;;21.17;8.57;;;;;;;-4.85;58.19;101168.91;6059103;23;20422;-82
2024/01/09 07:46:31;;;;;;;28.30;10.32;;;;;;;-4.87;57.88;101147.31;6061823;23;20049;-82
2024/01/09 07:48:58;;;;;;;20.95;8.38;;;;;;;-4.87;58.31;101166.31;6083111;23;20052;-82
2024/01/09 07:51:25;;;;;;;22.40;9.82;;;;;;;-4.88;57.61;101149.06;6061663;23;20085;-83
2024/01/09 07:53:52;;;;;;;28.15;10.00;;;;;;;-4.96;57.97;101162.88;6060806;23;20439;-83
2024/01/09 07:56:19;;;;;;;28.92;9.23;;;;;;;-4.98;58.16;101156.88;6085432;23;20891;-82
2024/01/09 07:58:46;;;;;;;27.13;10.82;;;;;;;-4.92;58.00;101151.66;6059602;23;20369;-83
2024/01/09 08:01:13;;;;;;;18.05;7.65;;;;;;;-4.89;57.65;101154.22;6061230;23;20351;-83
2024/01/09 08:03:41;;;;;;;24.23;9.15;;;;;;;-4.86;58.14;101160.28;6041353;23;20022;-83
2024/01/09 08:06:11;;;;;;;26.42;8.43;;;;;;;-4.88;58.10;101153.38;6056278;23;20026;-82
2024/01/09 08:08:39;;;;;;;23.63;10.10;;;;;;;-4.95;58.23;101152.53;6032190;23;20510;-85
2024/01/09 08:11:05;;;;;;;23.52;8.93;;;;;;;-4.86;58.32;101151.63;6082133;23;20690;-86
2024/01/09 08:13:32;;;;;;;26.27;10.02;;;;;;;-4.87;58.15;101150.78;6086899;23;20026;-84
2024/01/09 08:15:59;;;;;;;23.98;9.32;;;;;;;-4.86;57.82;101155.09;6062037;23;20489;-87
2024/01/09 08:18:26;;;;;;;27.52;9.35;;;;;;;-4.72;58.29;101160.22;6085189;23;20022;-84
2024/01/09 08:20:53;;;;;;;26.30;9.35;;;;;;;-4.67;57.78;101155.88;6085947;23;20037;-86
2024/01/09 08:23:21;;;;;;;26.67;9.63;;;;;;;-4.62;58.27;101153.25;6111402;23;20465;-87
2024/01/09 08:25:47;;;;;;;26.55;10.55;;;;;;;-4.72;57.67;101151.59;6087370;23;20319;-84
2024/01/09 08:28:14;;;;;;;26.40;9.77;;;;;;;-4.74;57.33;101161.94;6087217;23;20026;-85
2024/01/09 08:30:41;;;;;;;23.63;9.63;;;;;;;-4.69;57.57;101156.75;6086710;23;20022;-86
2024/01/09 08:33:08;;;;;;;25.23;9.55;;;;;;;-4.67;57.52;101147.25;6087674;23;20026;-85
2024/01/09 08:35:35;;;;;;;28.55;9.75;;;;;;;-4.74;57.26;101159.34;6087628;23;20466;-84
2024/01/09 08:38:03;;;;;;;28.05;9.68;;;;;;;-4.67;57.19;101155.88;6062921;23;20029;-83
2024/01/09 08:40:30;;;;;;;28.60;8.15;;;;;;;-4.61;57.29;101157.56;6110394;23;20521;-85
2024/01/09 08:42:57;;;;;;;28.10;9.60;;;;;;;-4.65;56.61;101153.28;6081904;23;20025;-85
2024/01/09 08:45:26;;;;;;;33.28;11.63;;;;;;;-4.72;56.86;101159.34;6081875;23;20786;-85
2024/01/09 08:47:53;;;;;;;27.42;9.82;;;;;;;-4.59;56.57;101153.25;6058709;23;20120;-85
2024/01/09 08:50:20;;;;;;;26.50;9.90;;;;;;;-4.50;56.87;101154.91;6057079;23;20085;-84
2024/01/09 08:52:47;;;;;;;27.58;10.00;;;;;;;-4.51;57.51;101153.19;6057760;23;20054;-86
2024/01/09 08:55:15;;;;;;;23.20;8.50;;;;;;;-4.51;57.02;101153.19;6033579;23;20061;-85
2024/01/09 08:57:42;;;;;;;28.27;12.80;;;;;;;-4.59;57.20;101159.28;6057604;23;20021;-85
2024/01/09 09:00:09;;;;;;;21.02;10.02;;;;;;;-4.51;56.78;101166.16;6079849;23;20026;-84
2024/01/09 09:02:36;;;;;;;26.30;10.07;;;;;;;-4.49;56.92;101167.88;6082379;23;20463;-85
2024/01/09 09:05:03;;;;;;;24.20;9.57;;;;;;;-4.50;57.22;101165.28;6058608;23;20732;-84
2024/01/09 09:07:30;;;;;;;22.80;9.70;;;;;;;-4.48;56.91;101154.03;6082270;23;20022;-83
2024/01/09 09:09:57;;;;;;;32.83;10.07;;;;;;;-4.36;57.16;101166.94;6080302;23;20029;-84
2024/01/09 09:12:25;;;;;;;24.98;9.77;;;;;;;-4.38;56.61;101149.66;6086905;23;20021;-83
2024/01/09 09:14:52;;;;;;;25.55;9.40;;;;;;;-4.40;56.29;101149.69;6085138;23;20056;-85
2024/01/09 09:17:19;;;;;;;25.75;9.23;;;;;;;-4.33;56.57;101154.81;6084397;23;20959;-84
2024/01/09 09:19:46;;;;;;;22.20;9.73;;;;;;;-4.25;56.60;101155.63;6096963;23;20097;-85
2024/01/09 09:22:12;;;;;;;29.25;9.38;;;;;;;-4.24;56.23;101154.78;6080782;23;20450;-84
2024/01/09 09:24:39;;;;;;;28.83;10.20;;;;;;;-4.22;56.36;101153.03;6057659;23;20350;-86
2024/01/09 09:27:06;;;;;;;21.55;8.90;;;;;;;-4.13;56.03;101157.28;6056629;23;20647;-84
2024/01/09 09:29:33;;;;;;;25.38;9.30;;;;;;;-4.21;54.65;101154.75;6053577;23;20391;-85
2024/01/09 09:32:05;;;;;;;25.88;8.90;;;;;;;-4.16;55.74;101155.59;6102257;23;20049;-84
2024/01/09 09:34:33;;;;;;;25.75;8.88;;;;;;;-4.19;54.96;101158.19;6083537;23;20070;-86
2024/01/09 09:37:00;;;;;;;26.10;9.88;;;;;;;-4.28;54.29;101143.53;6082663;23;20056;-87
2024/01/09 09:39:29;;;;;;;19.77;8.57;;;;;;;-4.07;55.37;101145.16;6034523;23;20126;-87
2024/01/09 09:41:59;;;;;;;24.20;8.60;;;;;;;-4.04;55.82;101144.28;6083119;23;20101;-85
2024/01/09 09:44:27;;;;;;;28.75;10.55;;;;;;;-4.02;55.86;101143.38;6085620;23;20053;-85
2024/01/09 09:46:55;;;;;;;23.20;8.45;;;;;;;-3.96;54.58;101143.31;6060616;23;20592;-87
2024/01/09 09:49:22;;;;;;;23.17;9.07;;;;;;;-4.01;54.65;101133.84;6057133;23;20025;-83
2024/01/09 09:51:53;;;;;;;27.00;9.30;;;;;;;-3.98;54.66;101132.09;6081268;23;20085;-84
2024/01/09 09:54:23;;;;;;;21.23;8.23;;;;;;;-3.89;55.51;101133.78;6076545;23;20638;-84
2024/01/09 09:56:50;;;;;;;26.55;10.68;;;;;;;-3.86;55.42;101128.53;6081627;23;20527;-85
2024/01/09 09:59:17;;;;;;;21.40;9.50;;;;;;;-3.80;55.16;101118.09;6033475;23;20077;-86
2024/01/09 10:01:44;;;;;;;28.35;9.02;;;;;;;-3.76;54.95;101131.94;6082863;23;20029;-85
2024/01/09 10:04:29;;;;;;;25.83;8.63;;;;;;;-3.75;54.13;101129.31;6107948;23;20022;-83
2024/01/09 10:06:57;;;;;;;34.03;8.40;;;;;;;-3.66;54.98;101127.50;6059823;23;20028;-84
2024/01/09 10:09:34;;;;;;;23.20;9.00;;;;;;;-3.65;54.07;101117.09;6082894;23;20084;-84
2024/01/09 10:12:01;;;;;;;27.13;10.73;;;;;;;-3.57;54.41;101127.41;6061074;23;20880;-84
2024/01/09 10:14:28;;;;;;;26.25;9.60;;;;;;;-3.58;54.75;101117.91;6110043;23;20018;-85
2024/01/09 10:16:55;;;;;;;23.80;9.18;;;;;;;-3.59;54.54;101116.19;6085489;23;20030;-85
2024/01/09 10:19:23;;;;;;;20.00;9.25;;;;;;;-3.58;53.65;101123.97;6105867;23;20033;-84
2024/01/09 10:21:50;;;;;;;26.20;8.77;;;;;;;-3.48;54.07;101129.09;6060323;23;20093;-84
2024/01/09 10:24:17;;;;;;;21.70;8.93;;;;;;;-3.54;53.40;101117.00;6085129;23;20030;-85
2024/01/09 10:26:44;;;;;;;24.98;9.85;;;;;;;-3.47;54.13;101118.66;6085479;23;20105;-85
2024/01/09 10:29:11;;;;;;;24.30;7.90;;;;;;;-3.42;53.67;101119.47;6082066;23;20113;-84
2024/01/09 10:31:42;;;;;;;26.63;8.95;;;;;;;-3.45;52.96;101103.06;6108276;23;20033;-84
2024/01/09 10:34:09;;;;;;;30.95;9.43;;;;;;;-3.36;53.97;101109.03;6085013;23;20086;-84
2024/01/09 10:36:36;;;;;;;21.83;7.63;;;;;;;-3.33;53.47;101109.00;6107255;23;20521;-84
2024/01/09 10:39:04;;;;;;;20.02;8.15;;;;;;;-3.23;53.34;101111.47;6083015;23;20081;-84
2024/01/09 10:41:32;;;;;;;22.30;9.18;;;;;;;-3.27;53.19;101098.53;6083942;23;20025;-84
2024/01/09 10:44:00;;;;;;;20.20;8.23;;;;;;;-3.28;52.04;101106.34;6084580;23;20469;-84
2024/01/09 10:46:29;;;;;;;24.10;9.77;;;;;;;-3.18;52.80;101100.19;6056176;23;20031;-85
2024/01/09 10:48:57;;;;;;;26.02;9.77;;;;;;;-3.27;51.62;101098.53;6083336;23;20088;-85
2024/01/09 10:51:24;;;;;;;21.40;8.23;;;;;;;-3.29;51.11;101089.03;6085558;23;20045;-85
2024/01/09 10:53:52;;;;;;;18.42;7.57;;;;;;;-3.29;50.94;101102.03;6059994;23;20022;-84
2024/01/09 10:56:22;;;;;;;24.73;8.45;;;;;;;-3.27;52.60;101082.09;6083257;23;20029;-84
2024/01/09 10:58:50;;;;;;;21.38;8.50;;;;;;;-3.26;52.34;101101.97;6104367;23;20029;-83
2024/01/09 11:01:17;;;;;;;23.30;8.48;;;;;;;-3.24;51.71;101095.03;6085272;23;20022;-88
2024/01/09 11:03:44;;;;;;;16.98;7.78;;;;;;;-3.18;51.66;101086.31;6084342;23;20094;-87
2024/01/09 11:06:16;;;;;;;21.27;7.85;;;;;;;-3.18;51.75;101091.50;6059238;23;20025;-85
2024/01/09 11:08:49;;;;;;;23.70;7.65;;;;;;;-3.16;51.25;101084.56;6081791;23;20308;-88
2024/01/09 11:11:18;;;;;;;26.10;8.75;;;;;;;-3.17;51.99;101075.91;6082580;23;20057;-86
2024/01/09 11:13:47;;;;;;;24.08;8.77;;;;;;;-3.02;52.16;101084.41;6105086;23;20018;-84
2024/01/09 11:16:17;;;;;;;23.45;9.60;;;;;;;-2.98;51.53;101076.53;6082515;23;20044;-85